createdAt,value
2022-09-06T00:01:50.405Z,101859.53
2022-09-06T00:06:48.582Z,101859.53
2022-09-06T00:11:46.685Z,101863.75
2022-09-06T00:16:44.842Z,101854.94
2022-09-06T00:21:44.306Z,101852.06
2022-09-06T00:26:42.407Z,101859.34
2022-09-06T00:31:40.626Z,101858.47
2022-09-06T00:36:38.742Z,101852.50
2022-09-06T00:41:38.434Z,101851.75
2022-09-06T00:46:38.473Z,101856.66
2022-09-06T00:51:38.722Z,101853.91
2022-09-06T00:56:44.082Z,101850.06
2022-09-06T01:01:42.346Z,101846.00
2022-09-06T01:06:53.369Z,101843.34
2022-09-06T01:12:09.399Z,101857.13
2022-09-06T01:17:11.606Z,101858.31
2022-09-06T01:22:21.370Z,101851.88
2022-09-06T01:27:42.508Z,101855.53
2022-09-06T01:32:50.824Z,101846.59
2022-09-06T01:37:49.231Z,101847.09
2022-09-06T01:42:51.041Z,101849.78
2022-09-06T01:48:00.725Z,101848.19
2022-09-06T01:53:10.614Z,101836.16
2022-09-06T01:58:25.369Z,101838.06
2022-09-06T02:03:30.295Z,101816.25
2022-09-06T02:08:32.642Z,101826.53
2022-09-06T02:13:34.625Z,101822.47
2022-09-06T02:18:37.221Z,101820.81
2022-09-06T02:23:39.520Z,101819.50
2022-09-06T02:28:39.199Z,101818.44
2022-09-06T02:33:38.310Z,101825.69
2022-09-06T02:38:38.998Z,101825.19
2022-09-06T02:43:38.481Z,101828.56
2022-09-06T02:48:36.608Z,101839.97
2022-09-06T02:53:34.858Z,101838.78
2022-09-06T02:58:33.131Z,101835.38
2022-09-06T03:03:32.610Z,101832.84
2022-09-06T03:08:33.697Z,101824.38
2022-09-06T03:13:35.261Z,101819.63
2022-09-06T03:18:34.805Z,101824.41
2022-09-06T03:23:34.804Z,101825.72
2022-09-06T03:28:35.081Z,101820.97
2022-09-06T03:33:34.630Z,101821.06
2022-09-06T03:38:32.920Z,101831.00
2022-09-06T03:43:33.311Z,101828.84
2022-09-06T03:48:31.500Z,101829.25
2022-09-06T03:53:31.137Z,101838.34
2022-09-06T03:58:32.032Z,101840.69
2022-09-06T04:03:30.239Z,101843.88
2022-09-06T04:08:30.003Z,101854.94
2022-09-06T04:13:30.249Z,101858.13
2022-09-06T04:18:29.009Z,101864.88
2022-09-06T04:23:28.783Z,101875.66
2022-09-06T04:28:29.222Z,101861.69
2022-09-06T04:33:28.129Z,101860.34
2022-09-06T04:38:26.959Z,101858.50
2022-09-06T04:43:25.450Z,101857.69
2022-09-06T04:48:24.942Z,101860.66
2022-09-06T04:53:23.099Z,101879.50
2022-09-06T04:58:21.306Z,101886.91
2022-09-06T05:03:19.758Z,101880.34
2022-09-06T05:08:19.338Z,101889.25
2022-09-06T05:13:17.425Z,101886.59
2022-09-06T05:18:16.224Z,101891.25
2022-09-06T05:23:14.432Z,101887.44
2022-09-06T05:28:13.989Z,101887.13
2022-09-06T05:33:13.291Z,101876.13
2022-09-06T05:38:11.419Z,101875.47
2022-09-06T05:43:09.513Z,101896.09
2022-09-06T05:48:09.387Z,101883.50
2022-09-06T05:53:07.470Z,101876.94
2022-09-06T05:58:05.585Z,101873.53
2022-09-06T06:03:03.668Z,101880.22
2022-09-06T06:08:03.631Z,101877.06
2022-09-06T06:13:01.746Z,101874.50
2022-09-06T06:17:59.852Z,101882.75
2022-09-06T06:22:58.080Z,101883.78
2022-09-06T06:27:57.592Z,101889.34
2022-09-06T06:32:55.706Z,101889.19
2022-09-06T06:37:54.017Z,101877.63
2022-09-06T06:42:52.149Z,101882.41
2022-09-06T06:47:52.197Z,101877.72
2022-09-06T06:52:50.341Z,101878.53
2022-09-06T06:57:48.449Z,101897.66
2022-09-06T07:02:46.610Z,101895.34
2022-09-06T07:07:46.274Z,101896.13
2022-09-06T07:12:44.445Z,101882.66
2022-09-06T07:17:42.741Z,101892.22
2022-09-06T07:22:41.397Z,101893.94
2022-09-06T07:27:49.084Z,101891.72
2022-09-06T07:32:47.986Z,101896.19
2022-09-06T07:37:53.532Z,101897.81
2022-09-06T07:42:52.978Z,101900.59
2022-09-06T07:53:13.828Z,101904.72
2022-09-06T07:58:13.974Z,101898.53
2022-09-06T08:03:12.117Z,101888.22
2022-09-06T08:13:29.911Z,101881.81
2022-09-06T08:18:28.043Z,101869.19
2022-09-06T08:23:26.242Z,101859.06
2022-09-06T08:28:28.129Z,101858.13
2022-09-06T08:33:28.467Z,101853.69
2022-09-06T08:38:27.242Z,101853.03
2022-09-06T08:43:25.647Z,101858.00
2022-09-06T08:48:25.561Z,101852.13
2022-09-06T08:53:25.651Z,101851.03
2022-09-06T08:58:35.660Z,101846.75
2022-09-06T09:03:36.757Z,101863.41
2022-09-06T09:08:46.357Z,101851.78
2022-09-06T09:13:55.639Z,101839.81
2022-09-06T09:18:58.326Z,101835.03
2022-09-06T09:23:59.308Z,101842.25
2022-09-06T09:29:04.879Z,101831.88
2022-09-06T09:34:04.809Z,101821.25
2022-09-06T09:39:10.634Z,101812.19
2022-09-06T09:44:12.000Z,101819.91
2022-09-06T09:49:11.891Z,101813.44
